Agnew, Washington
Current Conditions -  °F | °C
As of 9:53 PM on Friday 19 Dec 2014 (Local Time) from KCLM Reporting Station
Few Clouds Few Clouds  
Wind Chill:   Ceiling: Unl
Heat Index:   Visibility: 10mi
Dew Point:   Wind: 8mph
Humidity: 93%   Direction: 140°SE
Pressure: 29.79"   Gusts: NA
Location:  48.0203°N, 123.478°W
Report Text: KCLM 200553Z AUTO 14007KT 10SM FEW095 05/04 A2979 RMK AO2 RAB05E14 SLP090 P0000 60000 T00500039 10072 20033 58024 TSNO
Loading
Personal Weather Stations






























Interactive Weather Map New forecast layout! Learn more

10-Day Weather Forecast

Advertisements
Track Severe Weather on mobile